Latest Weather Observations for White Cliffs AWS

IDN60801

Issued at 8:52 am EST Monday 15 July 2024 (issued every 10 minutes, with the page automatically refreshed every 10 minutes)

About weather observations | Map of weather stations | Latest weather observations for NSW | Other Formats
Station Details ID: 046129 Name: WHITE CLIFFS AWS Lat: -30.85 Lon: 143.07 Height: 158.0 m
Data from the previous 72 hours. | See also: Recent months at White Cliffs AWS
Date/Time
EST
Temp
°C
App
Temp
°C
Dew
Point
°C
Rel
Hum
%
Delta-T
°C
Wind Press
QNH
hPa
Press
MSL
hPa
Rain since
9am
mm
Dir  Spd
km/h
Gust
km/h
Spd
kts
Gust
kts
15/08:30am 5.9 5.0 5.9 100 0.0 CALM 0 0 0 0 1015.8 1015.9 0.0
15/08:00am 4.4 1.8 4.4 100 0.0 SW 7 7 4 4 1015.6 1015.7 0.0
15/07:30am 3.9 0.9 3.9 100 0.0 SSW 9 9 5 5 1015.4 1015.5 0.0
15/07:00am 4.8 1.5 4.8 100 0.0 SW 11 11 6 6 1015.3 1015.4 0.0
15/06:30am 4.9 1.3 4.9 100 0.0 SSW 13 15 7 8 1015.0 1015.1 0.0
15/06:00am 4.1 1.5 4.1 100 0.0 SW 7 9 4 5 1014.9 1015.0 0.0
15/05:30am 3.6 0.9 3.6 100 0.0 WSW 7 7 4 4 1014.9 1015.0 0.0
15/05:00am 3.5 0.8 3.5 100 0.0 WNW 7 7 4 4 1014.8 1014.9 0.0
15/04:30am 4.2 1.6 4.2 100 0.0 NW 7 9 4 5 1014.8 1014.9 0.0
15/04:00am 4.2 2.5 4.1 99 0.0 WNW 2 9 1 5 1015.1 1015.2 0.0
15/03:30am 4.1 1.5 4.0 99 0.0 W 7 9 4 5 1015.2 1015.3 0.0
15/03:00am 4.8 1.9 4.5 98 0.1 SW 9 11 5 6 1015.2 1015.3 0.0
15/02:30am 5.3 2.8 4.9 97 0.2 W 7 9 4 5 1015.1 1015.2 0.0
15/02:00am 6.0 3.3 5.7 98 0.1 SW 9 11 5 6 1015.3 1015.4 0.0
15/01:30am 6.3 3.7 6.0 98 0.1 SW 9 11 5 6 1015.5 1015.6 0.0
15/01:00am 6.3 3.7 5.9 97 0.2 SW 9 11 5 6 1015.5 1015.6 0.0
15/12:30am 6.2 3.5 5.8 97 0.2 SW 9 11 5 6 1015.8 1015.9 0.0
15/12:00am 6.5 3.5 5.9 96 0.3 WSW 11 11 6 6 1016.1 1016.2 0.0
 
Date/Time
EST
Temp
°C
App
Temp
°C
Dew
Point
°C
Rel
Hum
%
Delta-T
°C
Wind Press
QNH
hPa
Press
MSL
hPa
Rain since
9am
mm
Dir  Spd
km/h
Gust
km/h
Spd
kts
Gust
kts
14/11:30pm 6.8 3.8 6.1 95 0.3 WSW 11 11 6 6 1016.5 1016.5 0.0
14/11:00pm 7.1 4.1 6.2 94 0.4 WSW 11 13 6 7 1016.8 1016.8 0.0
14/10:30pm 7.3 4.7 6.2 93 0.5 WSW 9 13 5 7 1017.1 1017.1 0.0
14/10:00pm 8.4 5.1 6.5 88 0.9 N 13 13 7 7 1017.1 1017.1 0.0
14/09:30pm 8.6 5.8 6.9 89 0.8 NE 11 13 6 7 1017.2 1017.2 0.0
14/09:00pm 8.8 6.4 6.8 87 0.9 SSW 9 11 5 6 1017.2 1017.2 0.0
14/08:30pm 9.5 6.7 6.9 84 1.2 NNE 11 13 6 7 1017.2 1017.2 0.0
14/08:00pm 10.2 7.0 6.9 80 1.6 NNE 13 15 7 8 1017.1 1017.1 0.0
14/07:30pm 10.8 7.6 6.9 77 1.9 SW 13 15 7 8 1016.9 1016.9 0.0
14/07:00pm 11.3 8.1 7.0 75 2.1 SW 13 17 7 9 1016.7 1016.7 0.0
14/06:30pm 11.6 8.6 7.5 76 2.0 WSW 13 17 7 9 1016.5 1016.5 0.0
14/06:00pm 11.9 8.8 7.2 73 2.3 WSW 13 15 7 8 1016.0 1016.1 0.0
14/05:30pm 13.3 9.4 6.9 65 3.1 WSW 17 24 9 13 1015.7 1015.8 0.0
14/05:00pm 14.1 10.7 7.6 65 3.2 SW 15 20 8 11 1015.6 1015.7 0.0
14/04:30pm 13.5 9.3 7.3 66 3.0 SW 19 24 10 13 1015.6 1015.7 0.0
14/04:00pm 14.3 9.6 7.6 64 3.3 SW 22 30 12 16 1015.5 1015.6 0.0
14/03:30pm 15.2 10.6 6.7 57 4.2 WSW 20 30 11 16 1015.6 1015.7 0.0
14/03:00pm 14.4 8.9 7.5 63 3.4 WSW 26 33 14 18 1015.8 1015.9 0.0
14/02:30pm 15.1 10.4 6.1 55 4.4 WSW 20 26 11 14 1015.8 1015.9 0.0
14/02:00pm 15.3 10.7 6.6 56 4.3 WSW 20 26 11 14 1015.9 1016.0 0.0
14/01:30pm 15.1 10.6 6.9 58 4.0 W 20 30 11 16 1016.2 1016.3 0.0
14/01:00pm 15.8 11.9 7.3 57 4.2 WSW 17 26 9 14 1016.8 1016.8 0.0
14/12:30pm 14.5 11.2 8.0 65 3.3 WSW 15 24 8 13 1017.5 1017.5 0.0
14/12:00pm 14.2 11.0 8.4 68 2.9 SW 15 20 8 11 1018.2 1018.3 0.0
14/11:30am 12.9 10.1 8.4 74 2.3 SW 13 19 7 10 1018.7 1018.8 0.0
14/11:00am 12.5 9.0 8.8 78 1.9 SW 17 20 9 11 1019.0 1019.1 0.0
14/10:30am 12.0 8.8 8.5 79 1.7 SW 15 20 8 11 1019.3 1019.4 0.0
14/10:00am 11.3 8.8 8.3 82 1.5 SW 11 15 6 8 1019.3 1019.4 0.0
14/09:30am 11.0 9.4 8.8 86 1.1 WSW 7 9 4 5 1019.2 1019.3 0.0
14/09:00am 10.4 8.7 8.5 88 0.9 SW 7 9 4 5 1019.0 1019.1 0.2
14/08:30am 9.7 7.2 8.1 90 0.8 SW 11 13 6 7 1019.0 1019.1 0.2
14/08:00am 9.0 6.8 7.8 92 0.6 SW 9 11 5 6 1018.8 1018.9 0.2
14/07:30am 8.9 6.7 7.7 92 0.6 SW 9 11 5 6 1018.5 1018.6 0.2
14/07:00am 8.7 6.1 7.6 93 0.5 SW 11 13 6 7 1018.6 1018.7 0.2
14/06:30am 8.2 6.3 7.4 95 0.4 SW 7 11 4 6 1018.5 1018.6 0.2
14/06:00am 8.1 6.2 7.5 96 0.3 WSW 7 9 4 5 1018.4 1018.5 0.2
14/05:30am 7.7 5.7 7.1 96 0.3 WSW 7 9 4 5 1018.0 1018.1 0.2
14/05:00am 7.5 5.5 6.9 96 0.3 W 7 9 4 5 1018.1 1018.2 0.2
14/04:30am 7.3 5.3 6.9 97 0.2 WNW 7 9 4 5 1018.0 1018.1 0.0
14/04:00am 7.3 5.2 6.7 96 0.3 W 7 9 4 5 1018.1 1018.2 0.0
14/03:30am 7.7 6.2 7.0 95 0.3 W 4 7 2 4 1018.1 1018.2 0.0
14/03:00am 7.8 5.9 6.7 93 0.5 W 6 7 3 4 1018.0 1018.1 0.0
14/02:30am 8.2 6.2 7.1 93 0.5 WNW 7 9 4 5 1018.0 1018.1 0.0
14/02:00am 8.4 7.5 7.6 95 0.4 W 2 6 1 3 1018.3 1018.4 0.0
14/01:30am 8.2 6.5 7.6 96 0.3 WNW 6 7 3 4 1018.4 1018.5 0.0
14/01:00am 8.1 6.1 7.3 95 0.4 WNW 7 7 4 4 1018.6 1018.7 0.0
14/12:30am 8.1 6.3 7.2 94 0.4 W 6 7 3 4 1018.7 1018.8 0.0
14/12:00am 8.3 6.6 7.4 94 0.4 WNW 6 7 3 4 1018.9 1019.0 0.0
 
Date/Time
EST
Temp
°C
App
Temp
°C
Dew
Point
°C
Rel
Hum
%
Delta-T
°C
Wind Press
QNH
hPa
Press
MSL
hPa
Rain since
9am
mm
Dir  Spd
km/h
Gust
km/h
Spd
kts
Gust
kts
13/11:30pm 8.2 6.3 7.4 95 0.4 WNW 7 9 4 5 1019.2 1019.3 0.0
13/11:00pm 8.1 6.3 7.2 94 0.4 WNW 6 7 3 4 1019.3 1019.4 0.0
13/10:30pm 8.1 6.1 7.0 93 0.5 WNW 7 9 4 5 1019.5 1019.6 0.0
13/10:00pm 8.3 6.2 6.8 90 0.7 WNW 7 9 4 5 1019.6 1019.7 0.0
13/09:30pm 9.0 7.2 7.0 87 0.9 WSW 6 7 3 4 1019.6 1019.7 0.0
13/09:00pm 9.4 7.4 7.0 85 1.1 SW 7 9 4 5 1019.5 1019.6 0.0
13/08:30pm 10.0 8.1 7.4 84 1.2 N 7 7 4 4 1019.3 1019.4 0.0
13/08:00pm 10.3 8.4 7.4 82 1.4 N 7 9 4 5 1019.0 1019.1 0.0
13/07:30pm 10.2 8.3 7.4 83 1.3 N 7 7 4 4 1018.8 1018.9 0.0
13/07:00pm 10.9 8.6 7.6 80 1.6 N 9 11 5 6 1018.5 1018.6 0.0
13/06:30pm 11.5 8.5 7.8 78 1.8 N 13 15 7 8 1018.4 1018.5 0.0
13/06:00pm 12.0 9.0 7.5 74 2.2 SSW 13 13 7 7 1018.2 1018.3 0.0
13/05:30pm 13.5 9.3 7.5 67 3.0 SSW 19 20 10 11 1018.1 1018.2 0.0
13/05:00pm 14.9 10.4 7.0 59 3.9 SW 20 28 11 15 1018.0 1018.1 0.0
13/04:30pm 15.5 10.5 6.5 55 4.4 SW 22 30 12 16 1017.9 1017.9 0.0
13/04:00pm 15.9 11.0 7.1 56 4.4 SW 22 26 12 14 1018.0 1018.1 0.0
13/03:30pm 15.9 11.0 7.1 56 4.4 SW 22 28 12 15 1017.9 1017.9 0.0
13/03:00pm 15.4 10.7 7.7 60 3.9 SW 22 28 12 15 1017.9 1017.9 0.0
13/02:30pm 16.1 12.2 7.1 55 4.5 SW 17 24 9 13 1017.7 1017.7 0.0
13/02:00pm 15.5 11.3 7.3 58 4.1 SW 19 24 10 13 1017.7 1017.7 0.0
13/01:30pm 15.4 11.4 8.4 63 3.6 SW 19 24 10 13 1018.0 1018.1 0.0
13/01:00pm 15.6 11.9 8.1 61 3.8 SW 17 24 9 13 1018.5 1018.6 0.0
13/12:30pm 15.2 11.2 8.4 64 3.5 SW 19 24 10 13 1019.2 1019.3 0.0
13/12:00pm 14.4 10.2 8.4 67 3.0 SW 20 28 11 15 1019.7 1019.8 0.0
13/11:30am 14.4 11.0 9.2 71 2.7 SW 17 24 9 13 1020.3 1020.4 0.0
13/11:00am 13.5 9.7 9.0 74 2.3 SW 19 24 10 13 1020.6 1020.7 0.0
13/10:30am 12.3 8.3 8.4 77 1.9 SSW 19 22 10 12 1020.8 1020.9 0.0
13/10:00am 10.8 6.9 7.1 78 1.8 SSW 17 20 9 11 1020.7 1020.8 0.0
13/09:30am 10.1 7.3 7.0 81 1.5 SW 11 15 6 8 1020.6 1020.7 0.0
13/09:00am 8.3 5.8 6.4 88 0.9 WSW 9 13 5 7 1020.5 1020.6 0.2
13/08:30am 7.3 4.3 5.8 90 0.7 SW 11 15 6 8 1020.1 1020.2 0.2
13/08:00am 6.3 2.8 5.3 93 0.4 SW 13 15 7 8 1019.7 1019.8 0.2
13/07:30am 5.7 2.0 4.7 93 0.4 SW 13 15 7 8 1019.4 1019.5 0.2
13/07:00am 5.3 2.0 4.6 95 0.3 SW 11 13 6 7 1019.2 1019.3 0.2
13/06:30am 4.6 1.5 3.7 94 0.4 SW 9 11 5 6 1018.9 1019.0 0.2
13/06:00am 5.3 2.0 4.3 93 0.4 SW 11 13 6 7 1018.8 1018.9 0.2
13/05:30am 5.5 1.8 4.3 92 0.5 SW 13 15 7 8 1018.8 1018.9 0.2
13/05:00am 5.6 1.9 4.4 92 0.5 SSW 13 13 7 7 1018.6 1018.7 0.2
13/04:30am 5.9 1.8 4.5 91 0.6 SSW 15 17 8 9 1018.7 1018.8 0.2
13/04:00am 6.0 2.0 4.8 92 0.5 SSW 15 17 8 9 1018.5 1018.6 0.2
13/03:30am 6.5 2.5 4.8 89 0.7 SSW 15 17 8 9 1018.5 1018.6 0.2
13/03:00am 6.3 2.3 5.1 92 0.5 SSW 15 17 8 9 1018.6 1018.7 0.2
13/02:30am 6.3 2.7 5.1 92 0.5 SSW 13 15 7 8 1018.3 1018.4 0.2
13/02:00am 6.1 2.9 5.1 93 0.4 SW 11 13 6 7 1018.3 1018.4 0.2
13/01:30am 6.2 2.6 5.0 92 0.5 SSW 13 15 7 8 1018.0 1018.1 0.2
13/01:00am 6.4 3.2 5.0 91 0.6 SSW 11 11 6 6 1018.1 1018.2 0.2
13/12:30am 6.9 3.7 5.2 89 0.8 SW 11 13 6 7 1018.3 1018.4 0.2
13/12:00am 6.8 3.6 5.1 89 0.8 SSW 11 11 6 6 1018.5 1018.6 0.2
 
Date/Time
EST
Temp
°C
App
Temp
°C
Dew
Point
°C
Rel
Hum
%
Delta-T
°C
Wind Press
QNH
hPa
Press
MSL
hPa
Rain since
9am
mm
Dir  Spd
km/h
Gust
km/h
Spd
kts
Gust
kts
12/11:30pm 7.3 4.2 5.4 88 0.9 SW 11 11 6 6 1018.6 1018.7 0.2
12/11:00pm 7.2 4.1 5.5 89 0.8 SW 11 13 6 7 1018.6 1018.7 0.0
12/10:30pm 7.4 4.4 5.9 90 0.7 SSW 11 11 6 6 1018.5 1018.6 0.0
12/10:00pm 7.8 4.8 5.9 88 0.9 SSW 11 13 6 7 1018.5 1018.6 0.0
12/09:30pm 8.5 5.2 6.3 86 1.0 SSW 13 15 7 8 1018.4 1018.5 0.0
12/09:00pm 8.8 6.0 6.8 87 0.9 SSW 11 13 6 7 1018.5 1018.6 0.0
12/08:30pm 8.4 6.3 6.7 89 0.8 SSW 7 9 4 5 1018.2 1018.3 0.0
12/08:00pm 8.9 6.9 7.0 88 0.9 SSW 7 11 4 6 1018.0 1018.1 0.0
12/07:30pm 9.5 6.4 7.1 85 1.1 SSW 13 15 7 8 1017.8 1017.8 0.0
12/07:00pm 10.4 7.4 7.5 82 1.4 SW 13 15 7 8 1017.6 1017.6 0.0
12/06:30pm 10.6 7.9 7.5 81 1.5 ENE 11 13 6 7 1017.1 1017.1 0.0
12/06:00pm 11.7 8.7 7.6 76 2.0 N 13 17 7 9 1016.8 1016.8 0.0
12/05:30pm 12.2 8.4 7.5 73 2.3 N 17 22 9 12 1016.5 1016.5 0.0
12/05:00pm 12.9 8.2 7.6 70 2.6 NNW 22 30 12 16 1016.3 1016.4 0.0
12/04:30pm 13.2 8.5 7.6 69 2.8 SW 22 30 12 16 1016.1 1016.2 0.0
12/04:00pm 13.3 9.8 8.6 73 2.4 S 17 20 9 11 1015.9 1016.0 0.0
12/03:30pm 13.4 9.6 9.1 75 2.2 SSE 19 24 10 13 1015.8 1015.9 0.0
12/03:00pm 13.5 9.4 8.6 72 2.5 WNW 20 30 11 16 1015.8 1015.9 0.0
12/02:30pm 13.1 8.2 8.4 73 2.4 SSW 24 30 13 16 1016.0 1016.1 0.0
12/02:00pm 13.9 9.6 9.3 74 2.4 SW 22 30 12 16 1015.7 1015.8 0.0
12/01:30pm 13.2 9.5 9.6 79 1.9 W 19 24 10 13 1015.9 1016.0 0.0
12/01:00pm 12.1 7.9 9.7 85 1.2 SSW 22 28 12 15 1016.3 1016.4 0.0
12/12:30pm 12.9 9.2 10.3 84 1.4 SSW 20 26 11 14 1016.6 1016.6 0.0
12/12:00pm 13.0 9.3 9.6 80 1.7 SW 19 24 10 13 1016.7 1016.7 0.0
12/11:30am 12.8 9.1 10.0 83 1.4 W 20 24 11 13 1017.2 1017.2 0.0
12/11:00am 13.6 10.2 10.4 81 1.7 S 19 22 10 12 1017.2 1017.2 0.0
12/10:30am 13.3 9.7 9.9 80 1.8 WSW 19 20 10 11 1017.1 1017.1 0.0
12/10:00am 13.1 9.9 10.1 82 1.6 NNW 17 19 9 10 1016.8 1016.8 0.0
12/09:30am 12.0 9.3 8.8 81 1.6 SSW 13 17 7 9 1016.7 1016.7 0.0
12/09:00am 11.5 9.7 9.4 87 1.1 SSW 9 11 5 6 1016.3 1016.4 0.6

Other formats

Comma delimited format used in spreadsheet applications
http://www.bom.gov.au/fwo/IDN60801/IDN60801.95699.axf

JavaScript Object Notation format (JSON) in row-major order
http://www.bom.gov.au/fwo/IDN60801/IDN60801.95699.json

Data quality

Most of these data are generated automatically and are frequently updated. Quality checks on data are not normally performed. It is possible for incorrect values to appear. Refer to information at About Latest Weather Observations and please check the disclaimer before using these data.